createdAt,value
2023-02-05T00:00:20.988Z,7.05
2023-02-05T00:02:47.808Z,7.63
2023-02-05T00:05:14.281Z,7.57
2023-02-05T00:07:40.772Z,6.68
2023-02-05T00:10:07.589Z,6.38
2023-02-05T00:12:34.082Z,7.38
2023-02-05T00:15:00.607Z,7.13
2023-02-05T00:17:27.183Z,7.20
2023-02-05T00:19:53.627Z,7.40
2023-02-05T00:22:20.102Z,8.02
2023-02-05T00:24:46.627Z,7.20
2023-02-05T00:27:13.172Z,7.03
2023-02-05T00:29:39.644Z,7.72
2023-02-05T00:32:06.129Z,7.50
2023-02-05T00:34:32.604Z,7.18
2023-02-05T00:36:59.517Z,7.25
2023-02-05T00:39:26.000Z,6.25
2023-02-05T00:41:52.884Z,7.07
2023-02-05T00:44:19.365Z,7.50
2023-02-05T00:46:46.099Z,7.38
2023-02-05T00:49:12.578Z,8.07
2023-02-05T00:51:39.100Z,7.10
2023-02-05T00:54:05.593Z,7.88
2023-02-05T00:56:32.120Z,7.20
2023-02-05T00:58:59.984Z,8.07
2023-02-05T01:01:26.864Z,7.88
2023-02-05T01:03:53.667Z,8.35
2023-02-05T01:06:20.966Z,7.70
2023-02-05T01:08:47.514Z,7.78
2023-02-05T01:11:15.139Z,7.18
2023-02-05T01:13:42.418Z,7.28
2023-02-05T01:16:10.540Z,7.53
2023-02-05T01:18:37.162Z,7.45
2023-02-05T01:21:03.897Z,8.18
2023-02-05T01:23:30.417Z,7.47
2023-02-05T01:25:57.112Z,8.32
2023-02-05T01:28:23.657Z,7.60
2023-02-05T01:30:51.289Z,6.80
2023-02-05T01:33:18.536Z,6.43
2023-02-05T01:35:45.216Z,7.60
2023-02-05T01:38:12.740Z,6.90
2023-02-05T01:40:39.807Z,6.57
2023-02-05T01:43:17.142Z,7.07
2023-02-05T01:45:57.807Z,6.93
2023-02-05T01:48:29.425Z,6.03
2023-02-05T01:51:01.418Z,7.13
2023-02-05T01:53:31.870Z,7.88
2023-02-05T01:56:03.059Z,7.63
2023-02-05T01:58:33.248Z,8.13
2023-02-05T02:00:59.840Z,7.22
2023-02-05T02:03:30.132Z,7.28
2023-02-05T02:05:58.298Z,7.55
2023-02-05T02:08:25.294Z,6.30
2023-02-05T02:10:53.507Z,6.30
2023-02-05T02:13:22.105Z,5.68
2023-02-05T02:15:50.047Z,6.40
2023-02-05T02:18:27.241Z,6.38
2023-02-05T02:21:19.574Z,6.20
2023-02-05T02:24:06.370Z,6.25
2023-02-05T02:26:40.797Z,6.88
2023-02-05T02:29:12.686Z,6.03
2023-02-05T02:31:50.130Z,6.50
2023-02-05T02:34:23.124Z,6.55
2023-02-05T02:36:56.895Z,6.13
2023-02-05T02:39:29.739Z,6.28
2023-02-05T02:42:06.324Z,6.22
2023-02-05T02:44:59.912Z,6.43
2023-02-05T02:47:31.509Z,5.68
2023-02-05T02:50:04.571Z,6.38
2023-02-05T02:52:35.826Z,7.28
2023-02-05T02:55:07.836Z,6.65
2023-02-05T02:57:39.520Z,6.45
2023-02-05T03:00:10.670Z,6.95
2023-02-05T03:02:39.036Z,6.38
2023-02-05T03:05:10.079Z,7.13
2023-02-05T03:07:43.066Z,6.72
2023-02-05T03:10:23.280Z,6.35
2023-02-05T03:12:49.949Z,6.82
2023-02-05T03:15:16.730Z,6.85
2023-02-05T03:17:43.943Z,6.65
2023-02-05T03:20:20.642Z,6.28
2023-02-05T03:22:47.199Z,6.85
2023-02-05T03:25:16.261Z,6.95
2023-02-05T03:27:43.094Z,7.80
2023-02-05T03:30:10.246Z,7.90
2023-02-05T03:32:52.875Z,7.65
2023-02-05T03:35:28.405Z,7.80
2023-02-05T03:38:21.787Z,7.72
2023-02-05T03:40:54.620Z,7.00
2023-02-05T03:43:58.438Z,8.15
2023-02-05T03:46:42.738Z,7.38
2023-02-05T03:49:20.319Z,7.45
2023-02-05T03:51:56.351Z,7.28
2023-02-05T03:54:30.432Z,7.80
2023-02-05T03:57:03.054Z,6.68
2023-02-05T03:59:33.731Z,7.25
2023-02-05T04:02:04.606Z,7.35
2023-02-05T04:04:35.518Z,7.97
2023-02-05T04:07:02.818Z,8.23
2023-02-05T04:09:29.765Z,7.18
2023-02-05T04:11:56.585Z,7.75
2023-02-05T04:14:23.884Z,7.13
2023-02-05T04:16:51.252Z,8.30
2023-02-05T04:19:20.712Z,7.50
2023-02-05T04:21:47.273Z,7.43
2023-02-05T04:24:14.019Z,7.43
2023-02-05T04:26:40.714Z,6.90
2023-02-05T04:29:08.088Z,8.05
2023-02-05T04:31:41.186Z,7.57
2023-02-05T04:34:07.923Z,7.25
2023-02-05T04:36:34.633Z,7.57
2023-02-05T04:39:01.935Z,7.38
2023-02-05T04:41:29.331Z,7.63
2023-02-05T04:43:55.933Z,8.32
2023-02-05T04:46:22.467Z,8.95
2023-02-05T04:48:48.960Z,8.30
2023-02-05T04:51:16.137Z,9.43
2023-02-05T04:53:43.058Z,9.73
2023-02-05T04:56:16.439Z,8.77
2023-02-05T04:58:43.820Z,9.80
2023-02-05T05:01:22.087Z,8.60
2023-02-05T05:03:49.646Z,8.73
2023-02-05T05:06:18.186Z,8.30
2023-02-05T05:08:44.985Z,9.35
2023-02-05T05:11:13.714Z,8.73
2023-02-05T05:13:40.623Z,8.95
2023-02-05T05:16:08.254Z,9.02
2023-02-05T05:18:35.256Z,8.95
2023-02-05T05:21:03.032Z,8.75
2023-02-05T05:23:30.181Z,8.50
2023-02-05T05:25:56.678Z,10.13
2023-02-05T05:28:23.242Z,9.82
2023-02-05T05:30:49.952Z,9.13
2023-02-05T05:33:16.653Z,8.98
2023-02-05T05:35:43.171Z,8.95
2023-02-05T05:38:09.703Z,9.80
2023-02-05T05:40:54.607Z,8.90
2023-02-05T05:43:39.914Z,9.02
2023-02-05T05:46:07.770Z,9.82
2023-02-05T05:48:34.756Z,9.70
2023-02-05T05:51:01.435Z,9.65
2023-02-05T05:53:28.451Z,9.80
2023-02-05T05:55:54.971Z,10.02
2023-02-05T05:58:21.429Z,10.38
2023-02-05T06:00:48.021Z,9.38
2023-02-05T06:03:14.493Z,10.38
2023-02-05T06:05:41.019Z,9.50
2023-02-05T06:08:07.877Z,10.43
2023-02-05T06:10:35.061Z,10.10
2023-02-05T06:13:01.594Z,9.95
2023-02-05T06:15:28.233Z,11.35
2023-02-05T06:17:54.817Z,11.45
2023-02-05T06:20:21.410Z,11.30
2023-02-05T06:22:47.954Z,11.07
2023-02-05T06:25:15.677Z,11.70
2023-02-05T06:27:42.302Z,11.43
2023-02-05T06:30:09.542Z,11.30
2023-02-05T06:32:36.095Z,10.45
2023-02-05T06:35:02.658Z,11.30
2023-02-05T06:37:46.147Z,11.35
2023-02-05T06:40:15.456Z,11.88
2023-02-05T06:42:41.960Z,11.27
2023-02-05T06:45:10.050Z,11.32
2023-02-05T06:47:37.681Z,11.50
2023-02-05T06:50:06.075Z,10.68
2023-02-05T06:52:32.997Z,11.77
2023-02-05T06:54:59.577Z,12.02
2023-02-05T06:57:26.132Z,13.18
2023-02-05T06:59:52.603Z,12.07
2023-02-05T07:02:19.093Z,11.18
2023-02-05T07:04:46.309Z,11.45
2023-02-05T07:07:13.630Z,12.07
2023-02-05T07:09:40.143Z,11.73
2023-02-05T07:12:07.008Z,11.57
2023-02-05T07:14:40.362Z,11.73
2023-02-05T07:17:07.840Z,12.18
2023-02-05T07:19:35.335Z,11.82
2023-02-05T07:22:02.048Z,12.43
2023-02-05T07:24:28.529Z,12.68
2023-02-05T07:26:55.054Z,12.38
2023-02-05T07:29:21.579Z,12.48
2023-02-05T07:31:52.312Z,11.82
2023-02-05T07:34:18.840Z,12.32
2023-02-05T07:36:45.381Z,12.15
2023-02-05T07:39:11.930Z,12.50
2023-02-05T07:41:38.564Z,11.82
2023-02-05T07:44:05.529Z,11.27
2023-02-05T07:46:32.157Z,11.43
2023-02-05T07:48:58.752Z,12.55
2023-02-05T07:51:26.789Z,12.25
2023-02-05T07:53:53.515Z,12.98
2023-02-05T07:56:23.147Z,14.07
2023-02-05T07:58:49.717Z,12.50
2023-02-05T08:01:16.468Z,11.18
2023-02-05T08:03:43.446Z,12.43
2023-02-05T08:06:14.676Z,12.60
2023-02-05T08:08:41.296Z,12.40
2023-02-05T08:11:08.522Z,12.20
2023-02-05T08:13:35.065Z,12.43
2023-02-05T08:16:08.049Z,12.57
2023-02-05T08:18:34.696Z,13.18
2023-02-05T08:21:01.189Z,14.50
2023-02-05T08:23:27.698Z,13.30
2023-02-05T08:25:55.004Z,12.77
2023-02-05T08:28:21.884Z,15.13
2023-02-05T08:30:48.456Z,14.27
2023-02-05T08:33:15.128Z,13.77
2023-02-05T08:35:41.645Z,11.35
2023-02-05T08:38:08.352Z,13.38
2023-02-05T08:40:36.466Z,19.83
2023-02-05T08:43:03.002Z,15.50
2023-02-05T08:45:31.177Z,12.77
2023-02-05T08:47:57.674Z,11.38
2023-02-05T08:50:24.395Z,10.68
2023-02-05T08:52:50.961Z,10.90
2023-02-05T08:55:20.748Z,11.65
2023-02-05T08:57:47.346Z,12.10
2023-02-05T09:00:17.228Z,13.07
2023-02-05T09:02:43.852Z,11.73
2023-02-05T09:05:10.759Z,13.73
2023-02-05T09:07:39.500Z,13.40
2023-02-05T09:10:11.773Z,12.73
2023-02-05T09:12:38.433Z,13.68
2023-02-05T09:15:06.104Z,13.77
2023-02-05T09:17:32.587Z,13.23
2023-02-05T09:19:59.106Z,13.02
2023-02-05T09:22:28.821Z,13.18
2023-02-05T09:24:55.357Z,14.52
2023-02-05T09:27:21.872Z,12.68
2023-02-05T09:29:48.382Z,14.65
2023-02-05T09:32:14.943Z,15.32
2023-02-05T09:34:41.437Z,14.75
2023-02-05T09:37:07.943Z,13.75
2023-02-05T09:40:18.532Z,15.18
2023-02-05T09:42:40.738Z,13.98
2023-02-05T09:45:07.180Z,15.25
2023-02-05T09:48:02.996Z,17.00
2023-02-05T09:50:30.570Z,13.90
2023-02-05T09:53:02.302Z,14.20
2023-02-05T09:55:36.583Z,13.85
2023-02-05T09:58:07.481Z,14.15
2023-02-05T10:00:42.949Z,14.00
2023-02-05T10:03:41.900Z,15.07
2023-02-05T10:06:25.338Z,15.10
2023-02-05T10:09:12.983Z,15.63
2023-02-05T10:11:46.427Z,16.67
2023-02-05T10:14:24.623Z,17.75
2023-02-05T10:17:05.852Z,16.63
2023-02-05T10:19:45.241Z,17.73
2023-02-05T10:22:25.847Z,15.65
2023-02-05T10:25:17.061Z,17.25
2023-02-05T10:28:20.151Z,15.77
2023-02-05T10:30:57.878Z,19.27
2023-02-05T10:33:33.679Z,23.05
2023-02-05T10:36:06.591Z,16.65
2023-02-05T10:38:36.585Z,16.15
2023-02-05T10:41:20.071Z,18.40
2023-02-05T10:43:53.993Z,18.37
2023-02-05T10:46:20.722Z,16.45
2023-02-05T10:48:56.301Z,17.17
2023-02-05T10:51:48.842Z,16.30
2023-02-05T10:54:24.606Z,19.85
2023-02-05T10:56:51.533Z,16.08
2023-02-05T10:59:25.265Z,14.75
2023-02-05T11:01:55.585Z,16.63
2023-02-05T11:04:39.781Z,17.17
2023-02-05T11:07:13.718Z,16.75
2023-02-05T11:09:40.829Z,16.08
2023-02-05T11:12:20.124Z,13.48
2023-02-05T11:14:56.937Z,15.48
2023-02-05T11:17:36.261Z,18.27
2023-02-05T11:20:18.077Z,18.52
2023-02-05T11:22:46.230Z,18.48
2023-02-05T11:25:22.574Z,17.10
2023-02-05T11:27:56.179Z,15.73
2023-02-05T11:30:50.500Z,15.55
2023-02-05T11:33:22.988Z,18.55
2023-02-05T11:36:06.344Z,22.15
2023-02-05T11:39:02.064Z,18.02
2023-02-05T11:41:30.604Z,19.52
2023-02-05T11:43:59.665Z,22.83
2023-02-05T11:46:28.292Z,23.60
2023-02-05T11:48:57.869Z,19.17
2023-02-05T11:51:36.485Z,15.93
2023-02-05T11:54:16.361Z,17.13
2023-02-05T11:56:43.008Z,17.15
2023-02-05T11:59:21.031Z,17.42
2023-02-05T12:01:48.298Z,16.85
2023-02-05T12:04:19.904Z,16.95
2023-02-05T12:06:52.420Z,16.77
2023-02-05T12:09:30.468Z,16.35
2023-02-05T12:12:16.781Z,15.43
2023-02-05T12:14:56.441Z,15.02
2023-02-05T12:17:34.097Z,15.82
2023-02-05T12:20:03.298Z,15.00
2023-02-05T12:23:07.371Z,16.08
2023-02-05T12:25:49.817Z,12.55
2023-02-05T12:28:31.456Z,12.05
2023-02-05T12:31:49.320Z,10.65
2023-02-05T12:34:40.476Z,7.53
2023-02-05T12:37:27.265Z,5.80
2023-02-05T12:39:58.228Z,3.00
2023-02-05T12:42:39.217Z,2.90
2023-02-05T12:45:30.720Z,2.60
2023-02-05T12:48:18.493Z,2.83
2023-02-05T12:50:51.112Z,3.40
2023-02-05T12:53:34.814Z,2.70
2023-02-05T12:56:04.499Z,1.98
2023-02-05T12:58:39.736Z,2.10
2023-02-05T13:01:16.272Z,1.70
2023-02-05T13:03:48.414Z,2.60
2023-02-05T13:06:29.847Z,2.50
2023-02-05T13:09:04.268Z,2.30
2023-02-05T13:11:36.721Z,1.90
2023-02-05T13:14:13.833Z,2.30
2023-02-05T13:16:45.804Z,2.30
2023-02-05T13:19:23.570Z,2.30
2023-02-05T13:22:11.797Z,2.20
2023-02-05T13:25:13.649Z,1.90
2023-02-05T13:28:06.822Z,1.70
2023-02-05T13:30:50.394Z,1.80
2023-02-05T13:33:17.087Z,1.63
2023-02-05T13:35:50.437Z,2.25
2023-02-05T13:38:37.148Z,2.75
2023-02-05T13:41:25.646Z,2.60
2023-02-05T13:44:20.651Z,2.00
2023-02-05T13:46:53.457Z,1.80
2023-02-05T13:49:46.798Z,1.73
2023-02-05T13:52:57.427Z,2.00
2023-02-05T13:55:23.832Z,2.10
2023-02-05T13:58:09.775Z,4.30
2023-02-05T14:00:39.709Z,1.70
2023-02-05T14:03:09.564Z,1.42
2023-02-05T14:05:39.602Z,2.25
2023-02-05T14:08:06.902Z,1.90
2023-02-05T14:10:40.896Z,2.75
2023-02-05T14:13:36.790Z,2.00
2023-02-05T14:16:23.498Z,2.05
2023-02-05T14:19:05.258Z,1.67
2023-02-05T14:21:31.700Z,1.77
2023-02-05T14:24:21.478Z,2.25
2023-02-05T14:26:51.230Z,1.80
2023-02-05T14:29:41.371Z,1.48
2023-02-05T14:32:13.034Z,1.30
2023-02-05T14:34:39.470Z,1.42
2023-02-05T14:37:05.995Z,1.40
2023-02-05T14:39:34.768Z,1.17
2023-02-05T14:42:07.650Z,1.50
2023-02-05T14:44:42.276Z,1.10
2023-02-05T14:47:28.708Z,3.40
2023-02-05T14:50:17.503Z,1.90
2023-02-05T14:52:54.182Z,1.63
2023-02-05T14:55:28.877Z,2.00
2023-02-05T14:58:09.432Z,1.33
2023-02-05T15:00:39.262Z,1.40
2023-02-05T15:03:05.807Z,1.40
2023-02-05T15:05:44.155Z,1.52
2023-02-05T15:08:34.387Z,1.10
2023-02-05T15:11:22.518Z,2.00
2023-02-05T15:14:35.360Z,1.20
2023-02-05T15:17:04.873Z,1.10
2023-02-05T15:19:34.249Z,1.00
2023-02-05T15:22:02.766Z,1.30
2023-02-05T15:24:30.319Z,1.10
2023-02-05T15:27:20.884Z,1.23
2023-02-05T15:29:53.030Z,0.98
2023-02-05T15:32:24.780Z,1.30
2023-02-05T15:34:55.595Z,1.17
2023-02-05T15:37:43.093Z,1.60
2023-02-05T15:40:19.861Z,1.25
2023-02-05T15:42:51.816Z,1.48
2023-02-05T15:45:30.555Z,2.60
2023-02-05T15:48:07.240Z,2.03
2023-02-05T15:50:36.247Z,2.22
2023-02-05T15:53:04.849Z,1.58
2023-02-05T15:55:31.579Z,2.05
2023-02-05T15:58:06.240Z,2.00
2023-02-05T16:00:34.587Z,1.55
2023-02-05T16:03:03.409Z,1.80
2023-02-05T16:05:32.125Z,2.28
2023-02-05T16:07:58.895Z,2.53
2023-02-05T16:10:30.738Z,3.30
2023-02-05T16:13:05.746Z,1.65
2023-02-05T16:15:46.558Z,3.13
2023-02-05T16:18:24.470Z,3.30
2023-02-05T16:20:56.104Z,2.70
2023-02-05T16:23:31.423Z,2.80
2023-02-05T16:26:03.153Z,2.10
2023-02-05T16:28:32.385Z,1.70
2023-02-05T16:31:00.635Z,2.10
2023-02-05T16:33:38.213Z,1.70
2023-02-05T16:36:07.178Z,3.15
2023-02-05T16:38:35.742Z,2.05
2023-02-05T16:41:24.505Z,2.55
2023-02-05T16:43:53.429Z,2.28
2023-02-05T16:46:28.855Z,1.98
2023-02-05T16:49:23.344Z,2.00
2023-02-05T16:51:49.808Z,2.03
2023-02-05T16:54:27.200Z,4.30
2023-02-05T16:57:14.004Z,3.65
2023-02-05T16:59:50.364Z,4.60
2023-02-05T17:02:41.139Z,2.90
2023-02-05T17:05:22.403Z,2.90
2023-02-05T17:08:09.273Z,8.23
2023-02-05T17:10:53.661Z,4.00
2023-02-05T17:16:30.972Z,5.03
2023-02-05T17:19:03.036Z,3.05
2023-02-05T17:21:32.129Z,4.57
2023-02-05T17:24:01.563Z,22.15
2023-02-05T17:26:31.482Z,6.40
2023-02-05T17:29:01.916Z,4.95
2023-02-05T17:31:31.222Z,3.50
2023-02-05T17:33:58.885Z,3.33
2023-02-05T17:36:25.965Z,3.90
2023-02-05T17:38:53.240Z,3.80
2023-02-05T17:41:41.657Z,2.92
2023-02-05T17:44:12.846Z,2.10
2023-02-05T17:46:40.322Z,2.63
2023-02-05T17:49:06.862Z,2.20
2023-02-05T17:51:33.545Z,2.45
2023-02-05T17:54:00.390Z,1.90
2023-02-05T17:56:27.402Z,2.63
2023-02-05T17:58:55.897Z,2.47
2023-02-05T18:01:22.550Z,2.58
2023-02-05T18:03:49.191Z,2.30
2023-02-05T18:06:17.974Z,14.90
2023-02-05T18:08:44.477Z,5.00
2023-02-05T18:11:11.138Z,3.13
2023-02-05T18:13:37.920Z,2.78
2023-02-05T18:16:04.873Z,2.10
2023-02-05T18:18:32.568Z,2.13
2023-02-05T18:20:59.173Z,2.38
2023-02-05T18:23:29.127Z,2.30
2023-02-05T18:25:57.574Z,2.83
2023-02-05T18:28:24.471Z,2.85
2023-02-05T18:31:06.149Z,4.60
2023-02-05T18:33:33.003Z,2.70
2023-02-05T18:36:04.178Z,3.97
2023-02-05T18:38:31.745Z,3.67
2023-02-05T18:41:14.465Z,2.00
2023-02-05T18:43:41.514Z,1.88
2023-02-05T18:46:12.954Z,1.55
2023-02-05T18:48:43.759Z,1.90
2023-02-05T18:51:13.319Z,1.90
2023-02-05T18:53:40.691Z,2.00
2023-02-05T18:56:13.957Z,7.30
2023-02-05T18:58:40.915Z,3.03
2023-02-05T19:01:20.802Z,1.83
2023-02-05T19:03:47.579Z,2.28
2023-02-05T19:06:16.718Z,1.77
2023-02-05T19:08:43.835Z,2.00
2023-02-05T19:11:13.010Z,1.88
2023-02-05T19:13:39.592Z,2.03
2023-02-05T19:16:12.905Z,2.10
2023-02-05T19:18:40.347Z,2.17
2023-02-05T19:21:08.175Z,4.30
2023-02-05T19:23:35.333Z,3.10
2023-02-05T19:26:07.299Z,2.72
2023-02-05T19:28:34.136Z,3.10
2023-02-05T19:31:04.733Z,2.85
2023-02-05T19:33:32.808Z,3.22
2023-02-05T19:36:00.126Z,3.58
2023-02-05T19:38:26.988Z,4.07
2023-02-05T19:40:53.467Z,3.60
2023-02-05T19:43:20.758Z,3.83
2023-02-05T19:45:47.897Z,3.72
2023-02-05T19:48:15.359Z,4.05
2023-02-05T19:50:42.511Z,3.78
2023-02-05T19:53:10.067Z,4.18
2023-02-05T19:55:36.981Z,6.15
2023-02-05T19:58:03.674Z,4.22
2023-02-05T20:00:30.206Z,4.75
2023-02-05T20:02:56.930Z,4.28
2023-02-05T20:05:23.889Z,3.80
2023-02-05T20:07:52.006Z,4.15
2023-02-05T20:10:19.913Z,4.63
2023-02-05T20:12:49.336Z,4.45
2023-02-05T20:15:16.222Z,3.85
2023-02-05T20:17:43.696Z,3.90
2023-02-05T20:20:19.875Z,4.28
2023-02-05T20:22:53.994Z,3.88
2023-02-05T20:25:21.127Z,4.20
2023-02-05T20:27:47.671Z,4.60
2023-02-05T20:30:33.339Z,4.70
2023-02-05T20:32:59.954Z,4.35
2023-02-05T20:35:26.448Z,4.05
2023-02-05T20:37:52.984Z,4.65
2023-02-05T20:40:19.577Z,4.10
2023-02-05T20:42:46.815Z,4.38
2023-02-05T20:45:13.403Z,4.70
2023-02-05T20:47:40.184Z,4.10
2023-02-05T20:50:08.088Z,4.00
2023-02-05T20:52:34.702Z,4.50
2023-02-05T20:55:01.407Z,4.47
2023-02-05T20:57:27.906Z,5.07
2023-02-05T20:59:54.377Z,4.28
2023-02-05T21:02:22.250Z,5.18
2023-02-05T21:04:50.311Z,5.28
2023-02-05T21:07:18.037Z,4.93
2023-02-05T21:09:44.476Z,5.00
2023-02-05T21:12:10.924Z,4.97
2023-02-05T21:14:38.429Z,5.50
2023-02-05T21:17:04.995Z,5.00
2023-02-05T21:19:31.495Z,4.95
2023-02-05T21:21:59.346Z,5.10
2023-02-05T21:24:26.005Z,5.82
2023-02-05T21:26:52.774Z,5.20
2023-02-05T21:29:20.689Z,5.50
2023-02-05T21:31:50.532Z,5.35
2023-02-05T21:34:21.776Z,5.90
2023-02-05T21:36:49.059Z,5.57
2023-02-05T21:39:16.121Z,6.38
2023-02-05T21:41:44.827Z,16.23
2023-02-05T21:44:11.673Z,6.78
2023-02-05T21:46:41.284Z,6.30
2023-02-05T21:49:08.061Z,6.85
2023-02-05T21:51:35.436Z,10.73
2023-02-05T21:54:04.705Z,12.50
2023-02-05T21:56:34.351Z,13.38
2023-02-05T21:59:01.046Z,13.10
2023-02-05T22:01:30.040Z,13.40
2023-02-05T22:04:02.844Z,13.25
2023-02-05T22:06:32.003Z,14.65
2023-02-05T22:08:59.676Z,14.68
2023-02-05T22:11:27.626Z,14.82
2023-02-05T22:13:55.330Z,14.70
2023-02-05T22:16:24.547Z,15.02
2023-02-05T22:18:52.690Z,15.25
2023-02-05T22:21:25.138Z,15.55
2023-02-05T22:23:54.302Z,15.50
2023-02-05T22:26:23.791Z,15.95
2023-02-05T22:28:50.917Z,15.32
2023-02-05T22:31:19.554Z,16.25
2023-02-05T22:33:48.509Z,15.27
2023-02-05T22:36:18.244Z,14.85
2023-02-05T22:38:44.959Z,15.63
2023-02-05T22:41:16.706Z,15.68
2023-02-05T22:43:43.288Z,14.68
2023-02-05T22:46:12.439Z,14.70
2023-02-05T22:48:41.001Z,15.35
2023-02-05T22:51:12.555Z,14.48
2023-02-05T22:53:39.525Z,14.50
2023-02-05T22:56:08.759Z,16.38
2023-02-05T22:58:37.866Z,14.77
2023-02-05T23:01:12.722Z,15.75
2023-02-05T23:03:40.336Z,16.63
2023-02-05T23:06:17.233Z,15.80
2023-02-05T23:08:48.374Z,15.15
2023-02-05T23:11:14.914Z,15.73
2023-02-05T23:13:42.086Z,15.93
2023-02-05T23:16:11.694Z,15.52
2023-02-05T23:18:39.653Z,16.33
2023-02-05T23:21:12.175Z,14.63
2023-02-05T23:23:38.775Z,16.15
2023-02-05T23:26:10.630Z,16.20
2023-02-05T23:28:37.530Z,16.83
2023-02-05T23:31:04.393Z,15.45
2023-02-05T23:33:31.615Z,17.80
2023-02-05T23:35:58.607Z,17.33
2023-02-05T23:38:25.459Z,17.55
2023-02-05T23:40:53.330Z,17.00
2023-02-05T23:43:20.428Z,17.25
2023-02-05T23:45:47.654Z,16.15
2023-02-05T23:48:14.397Z,16.45
2023-02-05T23:50:41.060Z,17.95
2023-02-05T23:53:07.552Z,17.38
2023-02-05T23:55:39.128Z,16.10
2023-02-05T23:58:06.505Z,15.50
